Terminal Aerodrome Forecast
Issued by NWS

Home | Current Version | Previous Version | Text Only | Print | Product List | Glossary On
Versions: 1 2 3 4 5 6 7 8 9 10 11 12 13 14 15 16 17 18 19 20 21 22 23 24 25 26 27 28 29 30 31 32 33 34
000
FTUS41 KCTP 232113 AAA
TAFBFD
TAF AMD
KBFD 232113Z 2321/2418 16009G15KT 1 1/2SM -RA BR OVC003
     FM232200 21007G14KT 2SM -DZ BR OVC003 WS020/21055KT
     FM240500 29008KT 6SM BR OVC003
     FM241500 02004KT 6SM HZ BR OVC015=

USA.gov is the U.S. government's official web portal to all federal, state and local government web resources and services.